Gales Addition, Washington
Current Conditions -  °F | °C
As of 3:53 PM on Saturday 25 Oct 2014 (Local Time) from KCLM Reporting Station
Light Rain Light Rain  
Wind Chill: 52°   Ceiling: 300
Heat Index: 52°   Visibility: 4mi
Dew Point: 50°   Wind: 5mph
Humidity: 93%   Direction: 70°ENE
Pressure: 29.27"   Gusts: NA
Location:  48.0203°N, 123.478°W
Report Text: KCLM 252253Z AUTO 07004KT 4SM -RA BR OVC003 11/10 A2927 RMK AO2 SLP913 P0011 T01110100 TSNO $
Loading
Personal Weather Stations






























Interactive Weather Map
Tropical Storm Tracking
New forecast layout! Learn more

10-Day Weather Forecast

Advertisements
Track Severe Weather on mobile